Time;durP1;ratioP1;P1;durP2;ratioP2;P2;SDS_P1;SDS_P2;PMS_P1;PMS_P2;Temp;Humidity;BMP_temperature;BMP_pressure;BME280_temperature;BME280_humidity;BME280_pressure;Samples;Min_cycle;Max_cycle;Signal;HPM_P1;HPM_P2
2024/03/29 00:00:55;;;;;;;;;;;9.70;1.00;;;;;;5055061;28;19905;-69
2024/03/29 00:03:21;;;;;;;;;;;9.80;1.00;;;;;;5055062;28;19904;-69
2024/03/29 00:05:46;;;;;;;;;;;9.60;25.20;;;;;;5055162;28;19915;-69
2024/03/29 00:08:12;;;;;;;;;;;9.80;99.90;;;;;;5054640;28;19912;-69
2024/03/29 00:10:38;;;;;;;;;;;9.70;99.90;;;;;;5055056;28;20275;-68
2024/03/29 00:13:04;;;;;;;;;;;9.60;99.90;;;;;;5054862;28;20288;-68
2024/03/29 00:15:31;;;;;;;;;;;9.60;99.90;;;;;;5054603;28;19905;-67
2024/03/29 00:17:56;;;;;;;;;;;9.40;1.00;;;;;;5054165;28;19912;-68
2024/03/29 00:20:23;;;;;;;;;;;9.30;1.00;;;;;;5054592;28;20280;-68
2024/03/29 00:22:48;;;;;;;;;;;9.30;1.00;;;;;;5054454;28;19912;-68
2024/03/29 00:25:14;;;;;;;;;;;9.30;1.00;;;;;;5054470;28;20296;-68
2024/03/29 00:27:39;;;;;;;;;;;9.00;99.90;;;;;;5054103;28;19999;-68
2024/03/29 00:30:05;;;;;;;;;;;9.30;1.00;;;;;;5054596;28;19905;-67
2024/03/29 00:32:30;;;;;;;;;;;8.90;1.00;;;;;;5054200;28;19948;-68
2024/03/29 00:34:57;;;;;;;;;;;9.40;1.00;;;;;;5054287;28;20254;-68
2024/03/29 00:37:23;;;;;;;;;;;9.40;1.00;;;;;;5053995;28;20288;-68
2024/03/29 00:39:49;;;;;;;;;;;8.90;1.00;;;;;;5054168;28;19911;-68
2024/03/29 00:42:19;;;;;;;;;;;9.50;1.00;;;;;;5054164;28;19911;-67
2024/03/29 00:44:44;;;;;;;;;;;9.60;99.90;;;;;;5054060;28;19908;-68
2024/03/29 00:47:10;;;;;;;;;;;9.50;99.90;;;;;;5053858;28;19959;-67
2024/03/29 00:49:36;;;;;;;;;;;9.50;99.90;;;;;;5053999;28;19905;-67
2024/03/29 00:52:02;;;;;;;;;;;9.50;99.90;;;;;;5054795;28;19909;-69
2024/03/29 00:54:28;;;;;;;;;;;9.30;99.90;;;;;;5054856;28;19908;-69
2024/03/29 00:56:54;;;;;;;;;;;9.60;99.90;;;;;;5055036;28;19959;-69
2024/03/29 00:59:20;;;;;;;;;;;9.70;99.90;;;;;;5055512;28;19905;-69
2024/03/29 01:01:45;;;;;;;;;;;9.70;1.00;;;;;;5054903;28;19905;-69
2024/03/29 01:04:11;;;;;;;;;;;9.70;2.70;;;;;;5053733;28;20280;-69
2024/03/29 01:06:37;;;;;;;;;;;9.70;2.90;;;;;;5053499;28;20288;-68
2024/03/29 01:09:03;;;;;;;;;;;9.80;2.10;;;;;;5053616;28;19912;-68
2024/03/29 01:11:29;;;;;;;;;;;9.30;2.20;;;;;;5053512;28;19997;-68
2024/03/29 01:13:54;;;;;;;;;;;9.80;3.20;;;;;;5053526;28;20395;-68
2024/03/29 01:16:20;;;;;;;;;;;9.70;3.00;;;;;;5053340;28;19905;-68
2024/03/29 01:18:46;;;;;;;;;;;9.70;3.30;;;;;;5053162;28;19912;-69
2024/03/29 01:21:12;;;;;;;;;;;9.70;2.60;;;;;;5053521;28;19944;-69
2024/03/29 01:23:38;;;;;;;;;;;9.70;2.80;;;;;;5053315;28;19963;-69
2024/03/29 01:26:04;;;;;;;;;;;9.80;2.20;;;;;;5053271;28;19905;-69
2024/03/29 01:28:30;;;;;;;;;;;9.80;2.50;;;;;;5052901;28;19905;-69
2024/03/29 01:30:55;;;;;;;;;;;10.00;2.10;;;;;;5053069;28;19966;-69
2024/03/29 01:33:21;;;;;;;;;;;9.80;1.90;;;;;;5053192;28;19908;-69
2024/03/29 01:35:47;;;;;;;;;;;9.80;1.90;;;;;;5053100;28;20380;-69
2024/03/29 01:38:12;;;;;;;;;;;10.00;1.00;;;;;;5052794;28;19912;-69
2024/03/29 01:40:38;;;;;;;;;;;9.90;1.00;;;;;;5052974;28;19913;-69
2024/03/29 01:43:03;;;;;;;;;;;10.00;1.00;;;;;;5052929;28;19991;-69
2024/03/29 01:45:29;;;;;;;;;;;9.60;1.00;;;;;;5052678;28;20373;-68
2024/03/29 01:47:55;;;;;;;;;;;10.00;1.00;;;;;;5052583;28;19905;-69
2024/03/29 01:50:21;;;;;;;;;;;10.00;1.00;;;;;;5052699;28;19904;-69
2024/03/29 01:52:47;;;;;;;;;;;10.10;1.00;;;;;;5052679;28;19995;-69
2024/03/29 01:55:12;;;;;;;;;;;10.10;1.00;;;;;;5052760;28;19905;-69
2024/03/29 01:57:38;;;;;;;;;;;9.80;21.90;;;;;;5052438;28;19911;-68
2024/03/29 02:00:05;;;;;;;;;;;10.20;1.00;;;;;;5052701;28;19948;-69
2024/03/29 02:02:32;;;;;;;;;;;9.80;1.00;;;;;;5053465;28;19927;-69
2024/03/29 02:04:58;;;;;;;;;;;10.20;1.00;;;;;;5054797;28;19966;-68
2024/03/29 02:07:24;;;;;;;;;;;10.10;1.00;;;;;;5054510;28;19904;-69
2024/03/29 02:09:50;;;;;;;;;;;10.30;1.00;;;;;;5055822;28;19911;-68
2024/03/29 02:12:15;;;;;;;;;;;10.20;1.00;;;;;;5055354;28;20372;-68
2024/03/29 02:14:42;;;;;;;;;;;10.20;1.00;;;;;;5052536;28;19904;-68
2024/03/29 02:17:08;;;;;;;;;;;10.10;1.00;;;;;;5052343;28;19970;-68
2024/03/29 02:19:33;;;;;;;;;;;10.10;1.00;;;;;;5052560;28;19944;-68
2024/03/29 02:22:00;;;;;;;;;;;9.90;1.00;;;;;;5052503;28;19905;-68
2024/03/29 02:24:26;;;;;;;;;;;9.90;1.00;;;;;;5052371;28;19916;-68
2024/03/29 02:26:53;;;;;;;;;;;9.90;2.40;;;;;;5052240;28;19911;-68
2024/03/29 02:29:19;;;;;;;;;;;9.90;3.40;;;;;;5052199;28;19958;-68
2024/03/29 02:31:44;;;;;;;;;;;9.90;3.20;;;;;;5052245;28;19912;-68
2024/03/29 02:34:10;;;;;;;;;;;9.90;4.00;;;;;;5052220;28;20414;-68
2024/03/29 02:36:35;;;;;;;;;;;9.90;3.40;;;;;;5052018;28;19904;-68
2024/03/29 02:39:01;;;;;;;;;;;10.00;1.00;;;;;;5052154;28;19958;-68
2024/03/29 02:41:26;;;;;;;;;;;10.10;1.00;;;;;;5052246;28;20380;-68
2024/03/29 02:43:52;;;;;;;;;;;10.30;1.00;;;;;;5052095;28;20345;-67
2024/03/29 02:46:17;;;;;;;;;;;10.30;1.00;;;;;;5052109;28;19991;-68
2024/03/29 02:48:43;;;;;;;;;;;10.40;1.00;;;;;;5051889;28;20330;-69
2024/03/29 02:51:08;;;;;;;;;;;10.30;1.00;;;;;;5051983;28;19916;-67
2024/03/29 02:53:33;;;;;;;;;;;10.40;1.00;;;;;;5052370;28;20376;-68
2024/03/29 02:55:59;;;;;;;;;;;10.50;1.00;;;;;;5051915;28;19912;-68
2024/03/29 02:58:24;;;;;;;;;;;10.50;1.00;;;;;;5051655;28;20285;-68
2024/03/29 03:00:50;;;;;;;;;;;10.60;1.00;;;;;;5051952;28;20361;-68
2024/03/29 03:03:16;;;;;;;;;;;10.50;1.00;;;;;;5051918;28;19912;-69
2024/03/29 03:05:42;;;;;;;;;;;10.60;1.00;;;;;;5051971;28;19911;-69
2024/03/29 03:11:00;;;;;;;;;;;10.70;1.00;;;;;;5051814;28;20292;-69
2024/03/29 03:13:29;;;;;;;;;;;10.80;1.00;;;;;;5053854;28;19908;-68
2024/03/29 03:15:55;;;;;;;;;;;10.50;1.00;;;;;;5054579;28;19909;-69
2024/03/29 03:18:21;;;;;;;;;;;10.80;1.00;;;;;;5056537;28;19916;-69
2024/03/29 03:20:57;;;;;;;;;;;10.80;1.00;;;;;;5058396;28;19982;-68
2024/03/29 03:23:23;;;;;;;;;;;10.30;1.00;;;;;;5056947;28;19905;-69
2024/03/29 03:25:55;;;;;;;;;;;10.30;1.00;;;;;;5056511;28;19905;-68
2024/03/29 03:28:21;;;;;;;;;;;10.30;1.00;;;;;;5058825;28;20435;-69
2024/03/29 03:30:47;;;;;;;;;;;10.60;1.00;;;;;;5058030;28;19909;-69
2024/03/29 03:33:13;;;;;;;;;;;10.90;1.00;;;;;;5057840;28;20535;-68
2024/03/29 03:35:39;;;;;;;;;;;10.30;1.60;;;;;;5055446;28;19905;-68
2024/03/29 03:38:04;;;;;;;;;;;10.40;3.90;;;;;;5055019;28;19905;-69
2024/03/29 03:40:29;;;;;;;;;;;10.30;5.20;;;;;;5055306;28;20392;-68
2024/03/29 03:42:55;;;;;;;;;;;10.20;7.00;;;;;;5055273;28;19912;-68
2024/03/29 03:45:20;;;;;;;;;;;10.20;9.40;;;;;;5055240;28;19905;-68
2024/03/29 03:47:46;;;;;;;;;;;10.10;11.30;;;;;;5054933;28;19905;-67
2024/03/29 03:50:11;;;;;;;;;;;10.00;11.40;;;;;;5055106;28;19905;-69
2024/03/29 03:52:37;;;;;;;;;;;9.90;99.90;;;;;;5054943;28;20392;-68
2024/03/29 03:55:02;;;;;;;;;;;9.80;99.90;;;;;;5055307;28;19911;-68
2024/03/29 03:57:28;;;;;;;;;;;9.20;99.90;;;;;;5058384;28;19912;-68
2024/03/29 03:59:53;;;;;;;;;;;9.60;99.90;;;;;;5058688;28;19904;-68
2024/03/29 04:02:19;;;;;;;;;;;9.50;1.00;;;;;;5059562;28;19991;-69
2024/03/29 04:04:48;;;;;;;;;;;9.50;1.00;;;;;;5058571;28;19904;-68
2024/03/29 04:07:13;;;;;;;;;;;9.30;99.90;;;;;;5058366;28;20276;-69
2024/03/29 04:09:39;;;;;;;;;;;9.50;1.00;;;;;;5058504;28;19905;-69
2024/03/29 04:12:04;;;;;;;;;;;9.40;1.00;;;;;;5055889;28;19962;-68
2024/03/29 04:14:30;;;;;;;;;;;9.10;1.00;;;;;;5054679;28;19911;-69
2024/03/29 04:16:55;;;;;;;;;;;9.40;1.00;;;;;;5054355;28;20000;-67
2024/03/29 04:19:21;;;;;;;;;;;9.50;2.40;;;;;;5055873;28;19904;-68
2024/03/29 04:21:46;;;;;;;;;;;9.50;76.60;;;;;;5057555;28;20353;-68
2024/03/29 04:24:12;;;;;;;;;;;9.40;99.90;;;;;;5057552;28;19943;-69
2024/03/29 04:26:38;;;;;;;;;;;9.40;99.90;;;;;;5056546;28;20420;-68
2024/03/29 04:29:04;;;;;;;;;;;9.40;23.60;;;;;;5053506;28;19909;-68
2024/03/29 04:31:29;;;;;;;;;;;9.30;23.60;;;;;;5054494;28;19970;-68
2024/03/29 04:33:55;;;;;;;;;;;9.40;24.30;;;;;;5054704;28;20378;-68
2024/03/29 04:36:20;;;;;;;;;;;9.00;25.30;;;;;;5054398;28;19905;-68
2024/03/29 04:38:47;;;;;;;;;;;9.50;27.50;;;;;;5053893;28;20296;-68
2024/03/29 04:41:12;;;;;;;;;;;9.50;28.50;;;;;;5054157;28;20410;-67
2024/03/29 04:43:39;;;;;;;;;;;9.40;30.60;;;;;;5056491;28;19909;-69
2024/03/29 04:46:09;;;;;;;;;;;9.50;32.90;;;;;;5057765;28;19927;-68
2024/03/29 04:48:35;;;;;;;;;;;9.10;31.00;;;;;;5055056;28;19905;-68
2024/03/29 04:51:01;;;;;;;;;;;9.60;38.90;;;;;;5054283;28;19920;-67
2024/03/29 04:53:26;;;;;;;;;;;9.50;39.00;;;;;;5054682;28;19905;-68
2024/03/29 04:55:55;;;;;;;;;;;9.50;40.00;;;;;;5055266;28;19959;-68
2024/03/29 04:58:21;;;;;;;;;;;9.00;35.90;;;;;;5056812;28;19904;-68
2024/03/29 05:00:47;;;;;;;;;;;9.40;41.90;;;;;;5056216;28;19912;-69
2024/03/29 05:03:13;;;;;;;;;;;9.40;41.30;;;;;;5056455;28;19904;-69
2024/03/29 05:05:38;;;;;;;;;;;9.40;35.00;;;;;;5054162;28;20034;-69
2024/03/29 05:08:04;;;;;;;;;;;9.50;38.30;;;;;;5053532;28;20352;-69
2024/03/29 05:10:29;;;;;;;;;;;9.10;38.50;;;;;;5054054;28;19966;-68
2024/03/29 05:12:55;;;;;;;;;;;9.40;41.20;;;;;;5054095;28;20016;-68
2024/03/29 05:15:20;;;;;;;;;;;9.00;30.80;;;;;;5053557;28;19904;-68
2024/03/29 05:17:46;;;;;;;;;;;9.00;32.00;;;;;;5053147;28;20288;-69
2024/03/29 05:20:11;;;;;;;;;;;8.90;29.90;;;;;;5053434;28;19908;-68
2024/03/29 05:22:37;;;;;;;;;;;8.90;35.90;;;;;;5053346;28;19941;-68
2024/03/29 05:25:03;;;;;;;;;;;9.00;41.00;;;;;;5053394;28;19909;-68
2024/03/29 05:27:29;;;;;;;;;;;8.80;85.90;;;;;;5053077;28;19996;-68
2024/03/29 05:29:55;;;;;;;;;;;9.00;49.30;;;;;;5053186;28;20391;-68
2024/03/29 05:32:20;;;;;;;;;;;9.10;54.80;;;;;;5053019;28;19915;-68
2024/03/29 05:34:46;;;;;;;;;;;9.00;59.50;;;;;;5053076;28;19905;-68
2024/03/29 05:37:12;;;;;;;;;;;8.80;67.30;;;;;;5053003;28;19904;-68
2024/03/29 05:39:37;;;;;;;;;;;8.90;71.00;;;;;;5053065;28;19916;-68
2024/03/29 05:42:03;;;;;;;;;;;8.90;76.90;;;;;;5052753;28;20003;-68
2024/03/29 05:44:28;;;;;;;;;;;8.80;80.50;;;;;;5052914;28;20327;-68
2024/03/29 05:46:54;;;;;;;;;;;9.00;80.70;;;;;;5052657;28;19905;-67
2024/03/29 05:49:19;;;;;;;;;;;8.80;84.30;;;;;;5052660;28;19992;-68
2024/03/29 05:51:45;;;;;;;;;;;8.80;85.90;;;;;;5052637;28;19909;-68
2024/03/29 05:54:10;;;;;;;;;;;8.80;89.20;;;;;;5052712;28;20050;-68
2024/03/29 05:56:36;;;;;;;;;;;8.80;90.80;;;;;;5052453;28;19905;-68
2024/03/29 05:59:01;;;;;;;;;;;9.10;92.20;;;;;;5052584;28;19932;-68
2024/03/29 06:01:27;;;;;;;;;;;8.90;93.20;;;;;;5052636;28;19908;-68
2024/03/29 06:03:54;;;;;;;;;;;8.80;95.20;;;;;;5052869;28;20348;-69
2024/03/29 06:06:23;;;;;;;;;;;9.00;96.50;;;;;;5052679;28;19911;-68
2024/03/29 06:08:49;;;;;;;;;;;9.00;96.60;;;;;;5052330;28;19905;-68
2024/03/29 06:11:14;;;;;;;;;;;8.90;97.20;;;;;;5052404;28;19916;-68
2024/03/29 06:19:10;;;;;;;;;;;9.40;95.90;;;;;;5052658;28;19971;-67
2024/03/29 06:21:38;;;;;;;;;;;9.30;96.10;;;;;;5052258;28;19908;-68
2024/03/29 06:24:08;;;;;;;;;;;9.30;95.90;;;;;;5052252;28;19909;-69
2024/03/29 06:26:34;;;;;;;;;;;9.30;95.90;;;;;;5051975;28;19992;-69
2024/03/29 06:29:02;;;;;;;;;;;9.50;96.90;;;;;;5051995;28;19951;-68
2024/03/29 06:31:28;;;;;;;;;;;9.40;96.70;;;;;;5052255;28;19966;-68
2024/03/29 06:33:54;;;;;;;;;;;9.50;97.90;;;;;;5052129;28;19913;-68
2024/03/29 06:36:20;;;;;;;;;;;9.70;97.80;;;;;;5052208;28;20480;-68
2024/03/29 06:38:45;;;;;;;;;;;9.60;98.80;;;;;;5051819;28;19913;-68
2024/03/29 06:41:11;;;;;;;;;;;9.70;97.90;;;;;;5052034;28;19905;-69
2024/03/29 06:43:36;;;;;;;;;;;9.80;99.00;;;;;;5052167;28;20273;-67
2024/03/29 06:46:03;;;;;;;;;;;9.90;99.10;;;;;;5051997;28;19909;-67
2024/03/29 06:48:31;;;;;;;;;;;10.00;97.60;;;;;;5051695;28;20328;-68
2024/03/29 06:50:56;;;;;;;;;;;10.10;96.40;;;;;;5051886;28;20339;-68
2024/03/29 06:53:22;;;;;;;;;;;10.10;95.40;;;;;;5054125;28;20007;-68
2024/03/29 06:55:48;;;;;;;;;;;10.10;95.20;;;;;;5056080;28;20292;-68
2024/03/29 06:58:14;;;;;;;;;;;10.20;94.90;;;;;;5055733;28;19939;-68
2024/03/29 07:00:39;;;;;;;;;;;10.30;94.20;;;;;;5055966;28;20415;-68
2024/03/29 07:03:05;;;;;;;;;;;10.30;93.70;;;;;;5056001;28;19905;-68
2024/03/29 07:05:30;;;;;;;;;;;10.40;94.00;;;;;;5055812;28;19908;-68
2024/03/29 07:07:56;;;;;;;;;;;10.50;91.60;;;;;;5055894;28;19948;-69
2024/03/29 07:10:21;;;;;;;;;;;10.50;91.70;;;;;;5055979;28;19904;-68
2024/03/29 07:12:47;;;;;;;;;;;10.60;91.30;;;;;;5056007;28;19963;-69
2024/03/29 07:15:12;;;;;;;;;;;10.60;90.80;;;;;;5056161;28;19905;-69
2024/03/29 07:17:38;;;;;;;;;;;10.70;99.90;;;;;;5055417;28;19913;-69
2024/03/29 07:20:05;;;;;;;;;;;10.80;85.60;;;;;;5055676;28;19931;-68
2024/03/29 07:22:30;;;;;;;;;;;10.80;84.50;;;;;;5055737;28;19909;-68
2024/03/29 07:24:56;;;;;;;;;;;10.80;87.40;;;;;;5055760;28;19911;-68
2024/03/29 07:27:21;;;;;;;;;;;10.80;88.20;;;;;;5055420;28;20001;-69
2024/03/29 07:29:47;;;;;;;;;;;10.80;89.30;;;;;;5055657;28;20396;-68
2024/03/29 07:32:12;;;;;;;;;;;10.80;90.70;;;;;;5055756;28;20383;-68
2024/03/29 07:34:39;;;;;;;;;;;10.90;91.00;;;;;;5055898;28;19905;-69
2024/03/29 07:37:04;;;;;;;;;;;10.90;91.90;;;;;;5055812;28;19905;-69
2024/03/29 07:39:30;;;;;;;;;;;11.00;91.70;;;;;;5055723;28;19959;-69
2024/03/29 07:41:55;;;;;;;;;;;11.10;83.50;;;;;;5055890;28;20284;-68
2024/03/29 07:44:21;;;;;;;;;;;11.20;79.10;;;;;;5055830;28;19912;-69
2024/03/29 07:46:47;;;;;;;;;;;11.30;69.20;;;;;;5055475;28;19920;-68
2024/03/29 07:49:13;;;;;;;;;;;11.40;65.00;;;;;;5056032;28;19905;-69
2024/03/29 07:51:39;;;;;;;;;;;11.60;56.80;;;;;;5055231;28;20398;-69
2024/03/29 07:54:04;;;;;;;;;;;11.70;54.20;;;;;;5055510;28;19905;-69
2024/03/29 07:56:30;;;;;;;;;;;11.70;53.50;;;;;;5055255;28;19905;-68
2024/03/29 07:58:55;;;;;;;;;;;11.80;50.10;;;;;;5054877;28;19911;-68
2024/03/29 08:01:21;;;;;;;;;;;11.90;46.70;;;;;;5055007;28;20038;-68
2024/03/29 08:03:47;;;;;;;;;;;11.90;47.00;;;;;;5055203;28;19978;-69
2024/03/29 08:06:13;;;;;;;;;;;11.90;45.20;;;;;;5055526;28;19909;-68
2024/03/29 08:08:38;;;;;;;;;;;12.00;49.00;;;;;;5054935;28;19926;-69
2024/03/29 08:11:04;;;;;;;;;;;12.00;48.20;;;;;;5055261;28;19912;-69
2024/03/29 08:13:29;;;;;;;;;;;12.10;48.40;;;;;;5055184;28;19951;-68
2024/03/29 08:15:59;;;;;;;;;;;12.10;46.40;;;;;;5055497;28;19912;-68
2024/03/29 08:18:24;;;;;;;;;;;12.20;47.40;;;;;;5054859;28;19922;-68
2024/03/29 08:20:50;;;;;;;;;;;12.20;47.30;;;;;;5054836;28;19904;-68
2024/03/29 08:23:15;;;;;;;;;;;12.20;51.10;;;;;;5054895;28;19904;-68
2024/03/29 08:25:41;;;;;;;;;;;12.30;45.60;;;;;;5054694;28;19905;-68
2024/03/29 08:28:06;;;;;;;;;;;12.40;46.90;;;;;;5054562;28;20019;-68
2024/03/29 08:30:34;;;;;;;;;;;12.50;50.20;;;;;;5055042;28;19987;-68
2024/03/29 08:33:02;;;;;;;;;;;12.40;48.90;;;;;;5054519;28;19909;-68
2024/03/29 08:35:28;;;;;;;;;;;12.60;62.70;;;;;;5054725;28;19909;-68
2024/03/29 08:37:54;;;;;;;;;;;12.90;58.40;;;;;;5054193;28;19991;-68
2024/03/29 08:40:19;;;;;;;;;;;12.90;54.60;;;;;;5054134;28;20387;-68
2024/03/29 08:42:45;;;;;;;;;;;13.10;49.90;;;;;;5054113;28;19944;-68
2024/03/29 08:45:11;;;;;;;;;;;13.20;49.40;;;;;;5054141;28;19905;-68
2024/03/29 08:47:37;;;;;;;;;;;13.80;44.20;;;;;;5053696;28;19955;-68
2024/03/29 08:50:04;;;;;;;;;;;13.10;41.10;;;;;;5054106;28;20316;-68
2024/03/29 08:52:30;;;;;;;;;;;13.10;42.70;;;;;;5053814;28;19954;-68
2024/03/29 08:54:55;;;;;;;;;;;13.50;44.20;;;;;;5053943;28;19909;-68
2024/03/29 08:57:21;;;;;;;;;;;13.40;36.30;;;;;;5053671;28;20365;-68
2024/03/29 08:59:46;;;;;;;;;;;13.50;40.70;;;;;;5053874;28;19905;-68
2024/03/29 09:02:11;;;;;;;;;;;13.60;34.60;;;;;;5053739;28;20435;-68
2024/03/29 09:04:37;;;;;;;;;;;13.70;28.60;;;;;;5053870;28;19912;-68
2024/03/29 09:07:03;;;;;;;;;;;13.70;28.70;;;;;;5053393;28;19944;-68
2024/03/29 09:09:29;;;;;;;;;;;13.80;24.50;;;;;;5053558;28;19904;-68
2024/03/29 09:11:54;;;;;;;;;;;13.70;25.90;;;;;;5053570;28;20431;-67
2024/03/29 09:14:20;;;;;;;;;;;13.70;23.30;;;;;;5053586;28;19904;-68
2024/03/29 09:16:47;;;;;;;;;;;13.80;26.40;;;;;;5052518;28;20245;-67
2024/03/29 09:19:13;;;;;;;;;;;14.10;24.20;;;;;;5053831;28;19912;-68
2024/03/29 09:21:39;;;;;;;;;;;14.20;18.50;;;;;;5053899;28;19931;-69
2024/03/29 09:24:05;;;;;;;;;;;14.30;15.60;;;;;;5054138;28;19905;-69
2024/03/29 09:26:31;;;;;;;;;;;14.30;12.90;;;;;;5053999;28;19911;-69
2024/03/29 09:28:56;;;;;;;;;;;14.40;15.10;;;;;;5053543;28;19916;-68
2024/03/29 09:31:22;;;;;;;;;;;14.50;10.00;;;;;;5053831;28;19908;-69
2024/03/29 09:33:52;;;;;;;;;;;14.50;8.50;;;;;;5053888;28;19904;-68
2024/03/29 09:36:19;;;;;;;;;;;14.60;7.10;;;;;;5053818;28;19966;-68
2024/03/29 09:38:45;;;;;;;;;;;14.80;8.60;;;;;;5053495;28;19911;-68
2024/03/29 09:41:13;;;;;;;;;;;14.90;6.60;;;;;;5053118;28;20007;-69
2024/03/29 09:43:41;;;;;;;;;;;15.00;5.10;;;;;;5053046;28;20276;-68
2024/03/29 09:46:08;;;;;;;;;;;15.00;1.00;;;;;;5053491;28;19916;-68
2024/03/29 09:48:36;;;;;;;;;;;15.30;1.00;;;;;;5052968;28;20434;-68
2024/03/29 09:51:03;;;;;;;;;;;15.30;1.00;;;;;;5052767;28;19996;-68
2024/03/29 09:53:28;;;;;;;;;;;15.40;1.00;;;;;;5052239;28;20356;-68
2024/03/29 09:55:54;;;;;;;;;;;15.50;1.00;;;;;;5052732;28;19960;-69
2024/03/29 09:58:19;;;;;;;;;;;15.40;1.00;;;;;;5052485;28;19951;-68
2024/03/29 10:00:45;;;;;;;;;;;15.50;1.00;;;;;;5052629;28;19905;-67
2024/03/29 10:03:10;;;;;;;;;;;15.60;1.00;;;;;;5051926;28;19955;-68
2024/03/29 10:05:36;;;;;;;;;;;15.60;1.00;;;;;;5052400;28;19908;-68
2024/03/29 10:08:07;;;;;;;;;;;15.70;1.00;;;;;;5052277;28;20030;-68
2024/03/29 10:10:32;;;;;;;;;;;15.70;1.00;;;;;;5049950;28;19912;-69
2024/03/29 10:12:58;;;;;;;;;;;15.70;1.00;;;;;;5051702;28;19913;-69
2024/03/29 10:15:26;;;;;;;;;;;15.50;1.00;;;;;;5049275;28;19908;-69
2024/03/29 10:17:52;;;;;;;;;;;15.60;1.00;;;;;;5051062;28;19917;-68
2024/03/29 10:20:18;;;;;;;;;;;15.70;1.00;;;;;;5051687;28;19916;-68
2024/03/29 10:22:45;;;;;;;;;;;15.90;1.00;;;;;;5052272;28;19904;-67
2024/03/29 10:25:10;;;;;;;;;;;15.90;1.00;;;;;;5052153;28;19999;-67
2024/03/29 10:27:36;;;;;;;;;;;16.00;1.00;;;;;;5050953;28;19951;-67
2024/03/29 10:30:03;;;;;;;;;;;16.00;1.00;;;;;;5052197;28;19913;-66
2024/03/29 10:32:29;;;;;;;;;;;16.00;1.00;;;;;;5051590;28;19935;-66
2024/03/29 10:34:54;;;;;;;;;;;15.90;1.00;;;;;;5051623;28;19908;-66
2024/03/29 10:37:32;;;;;;;;;;;15.90;1.00;;;;;;5051591;28;19912;-66
2024/03/29 10:39:58;;;;;;;;;;;15.90;1.00;;;;;;5051898;28;19936;-68
2024/03/29 10:42:25;;;;;;;;;;;16.00;1.00;;;;;;5051716;28;20007;-68
2024/03/29 10:44:51;;;;;;;;;;;16.10;1.00;;;;;;5052073;28;20383;-68
2024/03/29 10:47:22;;;;;;;;;;;16.10;1.00;;;;;;5051190;28;19912;-68
2024/03/29 10:49:49;;;;;;;;;;;16.30;1.00;;;;;;5051781;28;20269;-68
2024/03/29 10:52:17;;;;;;;;;;;16.30;1.00;;;;;;5051763;28;20569;-68
2024/03/29 10:54:44;;;;;;;;;;;16.50;1.00;;;;;;5051633;28;19911;-68
2024/03/29 10:57:12;;;;;;;;;;;16.40;1.00;;;;;;5051613;28;19948;-68
2024/03/29 11:00:02;;;;;;;;;;;16.40;1.00;;;;;;5051545;28;19909;-69
2024/03/29 11:02:30;;;;;;;;;;;16.50;1.00;;;;;;5041376;28;19916;-69
2024/03/29 11:04:57;;;;;;;;;;;16.50;1.00;;;;;;5051697;28;19912;-68
2024/03/29 11:07:23;;;;;;;;;;;16.70;1.00;;;;;;5051651;28;19909;-68
2024/03/29 11:09:52;;;;;;;;;;;17.00;1.00;;;;;;5051455;28;19905;-68
2024/03/29 11:12:18;;;;;;;;;;;17.00;1.00;;;;;;5051517;28;20276;-68
2024/03/29 11:14:47;;;;;;;;;;;16.80;1.00;;;;;;5051713;28;19905;-69
2024/03/29 11:17:13;;;;;;;;;;;16.90;1.00;;;;;;5051178;28;19913;-68
2024/03/29 11:19:39;;;;;;;;;;;16.90;1.00;;;;;;5051587;28;19905;-68
2024/03/29 11:22:05;;;;;;;;;;;16.60;1.00;;;;;;5051631;28;19950;-68
2024/03/29 11:24:31;;;;;;;;;;;16.40;1.00;;;;;;5051274;28;19905;-68
2024/03/29 11:26:57;;;;;;;;;;;16.40;1.00;;;;;;5051272;28;19913;-68
2024/03/29 11:29:23;;;;;;;;;;;16.40;1.00;;;;;;5051484;28;19912;-68
2024/03/29 11:31:58;;;;;;;;;;;16.50;1.00;;;;;;5051225;28;20351;-68
2024/03/29 11:34:24;;;;;;;;;;;16.50;1.00;;;;;;5051470;28;19999;-69
2024/03/29 11:36:49;;;;;;;;;;;16.60;1.00;;;;;;5051259;28;20414;-68
2024/03/29 11:39:21;;;;;;;;;;;16.50;1.00;;;;;;5053068;28;19928;-68
2024/03/29 11:41:48;;;;;;;;;;;16.40;1.00;;;;;;5055184;28;19938;-68
2024/03/29 11:44:13;;;;;;;;;;;16.60;1.00;;;;;;5055404;28;19904;-69
2024/03/29 11:46:39;;;;;;;;;;;16.80;1.00;;;;;;5054755;28;20004;-68
2024/03/29 11:49:05;;;;;;;;;;;16.80;1.00;;;;;;5055044;28;19905;-68
2024/03/29 11:51:31;;;;;;;;;;;16.90;1.00;;;;;;5054855;28;19909;-68
2024/03/29 11:53:57;;;;;;;;;;;17.10;1.00;;;;;;5054719;28;20003;-68
2024/03/29 11:56:22;;;;;;;;;;;17.20;1.00;;;;;;5054730;28;20376;-68
2024/03/29 11:58:48;;;;;;;;;;;17.30;1.00;;;;;;5054390;28;19995;-67
2024/03/29 12:01:14;;;;;;;;;;;17.30;1.00;;;;;;5054628;28;19912;-66
2024/03/29 12:03:40;;;;;;;;;;;16.90;1.00;;;;;;5054714;28;20261;-67
2024/03/29 12:06:06;;;;;;;;;;;16.90;1.00;;;;;;5054496;28;19904;-66
2024/03/29 12:08:32;;;;;;;;;;;16.40;1.00;;;;;;5053804;28;19908;-66
2024/03/29 12:10:58;;;;;;;;;;;16.30;1.00;;;;;;5054280;28;19905;-67
2024/03/29 12:13:24;;;;;;;;;;;16.30;1.00;;;;;;5054418;28;19915;-67
2024/03/29 12:15:49;;;;;;;;;;;16.30;1.00;;;;;;5054298;28;19991;-66
2024/03/29 12:18:16;;;;;;;;;;;16.30;1.00;;;;;;5054160;28;20307;-68
2024/03/29 12:20:46;;;;;;;;;;;16.40;1.00;;;;;;5054368;28;20512;-69
2024/03/29 12:23:13;;;;;;;;;;;16.50;1.00;;;;;;5054482;28;20297;-68
2024/03/29 12:25:39;;;;;;;;;;;16.50;1.00;;;;;;5054676;28;19931;-69
2024/03/29 12:28:05;;;;;;;;;;;16.50;1.00;;;;;;5054220;28;19958;-69
2024/03/29 12:30:30;;;;;;;;;;;16.40;1.00;;;;;;5054312;28;20327;-70
2024/03/29 12:33:15;;;;;;;;;;;16.30;1.00;;;;;;5054485;28;19982;-69
2024/03/29 12:35:42;;;;;;;;;;;16.10;1.00;;;;;;5054478;28;19955;-69
2024/03/29 12:38:07;;;;;;;;;;;16.10;1.00;;;;;;5053769;28;20349;-69
2024/03/29 12:40:37;;;;;;;;;;;16.00;1.00;;;;;;5054377;28;19961;-68
2024/03/29 12:43:08;;;;;;;;;;;15.80;1.00;;;;;;5057428;28;20261;-69
2024/03/29 12:45:34;;;;;;;;;;;16.10;1.00;;;;;;5057709;28;19913;-68
2024/03/29 12:47:59;;;;;;;;;;;15.70;1.00;;;;;;5057171;28;19908;-69
2024/03/29 12:50:26;;;;;;;;;;;15.80;1.00;;;;;;5056137;28;19911;-69
2024/03/29 12:52:56;;;;;;;;;;;16.10;1.00;;;;;;5056732;28;20328;-69
2024/03/29 12:55:22;;;;;;;;;;;16.30;1.00;;;;;;5057509;28;19940;-67
2024/03/29 12:57:48;;;;;;;;;;;16.60;1.00;;;;;;5057152;28;19904;-69
2024/03/29 13:00:14;;;;;;;;;;;16.80;1.00;;;;;;5057374;28;19904;-69
2024/03/29 13:02:40;;;;;;;;;;;17.10;1.00;;;;;;5057123;28;19905;-68
2024/03/29 13:05:06;;;;;;;;;;;17.20;1.00;;;;;;5057280;28;19905;-68
2024/03/29 13:07:32;;;;;;;;;;;17.40;1.00;;;;;;5057172;28;19904;-70
2024/03/29 13:10:03;;;;;;;;;;;17.80;1.00;;;;;;5056426;28;19908;-69
2024/03/29 13:12:31;;;;;;;;;;;18.90;1.00;;;;;;5056408;28;19909;-70
2024/03/29 13:15:02;;;;;;;;;;;19.90;1.00;;;;;;5055677;28;19932;-69
2024/03/29 13:17:28;;;;;;;;;;;20.80;1.00;;;;;;5054938;28;19913;-70
2024/03/29 13:19:53;;;;;;;;;;;21.10;1.00;;;;;;5055617;28;19912;-70
2024/03/29 13:22:18;;;;;;;;;;;20.40;1.00;;;;;;5055208;28;19911;-70
2024/03/29 13:24:44;;;;;;;;;;;19.80;1.00;;;;;;5055217;28;19912;-69
2024/03/29 13:27:09;;;;;;;;;;;19.80;1.00;;;;;;5054769;28;20349;-70
2024/03/29 13:29:35;;;;;;;;;;;20.30;1.00;;;;;;5055575;28;20043;-69
2024/03/29 13:32:00;;;;;;;;;;;20.30;1.00;;;;;;5054332;28;19913;-69
2024/03/29 13:34:26;;;;;;;;;;;20.80;1.00;;;;;;5054245;28;19912;-69
2024/03/29 13:36:51;;;;;;;;;;;20.80;1.00;;;;;;5054394;28;19905;-70
2024/03/29 13:39:17;;;;;;;;;;;21.40;1.00;;;;;;5054908;28;19984;-69
2024/03/29 13:41:43;;;;;;;;;;;21.80;1.00;;;;;;5054429;28;19912;-70
2024/03/29 13:44:08;;;;;;;;;;;22.00;1.00;;;;;;5055096;28;19944;-68
2024/03/29 13:46:34;;;;;;;;;;;21.80;1.00;;;;;;5054861;28;19904;-68
2024/03/29 13:49:00;;;;;;;;;;;21.30;1.00;;;;;;5054470;28;19905;-69
2024/03/29 13:51:26;;;;;;;;;;;20.70;1.00;;;;;;5054765;28;19908;-69
2024/03/29 13:53:53;;;;;;;;;;;20.70;1.00;;;;;;5055290;28;19904;-69
2024/03/29 13:56:19;;;;;;;;;;;20.40;1.00;;;;;;5054091;28;19999;-69
2024/03/29 13:58:45;;;;;;;;;;;20.20;1.00;;;;;;5053431;28;19943;-69
2024/03/29 14:01:10;;;;;;;;;;;19.90;1.00;;;;;;5054952;28;19912;-69
2024/03/29 14:03:36;;;;;;;;;;;19.30;1.00;;;;;;5055419;28;19977;-70
2024/03/29 14:06:01;;;;;;;;;;;18.90;1.00;;;;;;5055430;28;19912;-69
2024/03/29 14:08:27;;;;;;;;;;;18.40;1.00;;;;;;5053612;28;19970;-68
2024/03/29 14:10:53;;;;;;;;;;;18.30;1.00;;;;;;5053668;28;19905;-68
2024/03/29 14:13:21;;;;;;;;;;;18.20;1.00;;;;;;5052690;28;19905;-68
2024/03/29 14:15:47;;;;;;;;;;;18.00;1.00;;;;;;5052226;28;19908;-68
2024/03/29 14:18:13;;;;;;;;;;;17.70;1.00;;;;;;5052147;28;20128;-68
2024/03/29 14:20:39;;;;;;;;;;;17.30;1.00;;;;;;5052040;28;19909;-68
2024/03/29 14:23:06;;;;;;;;;;;17.00;1.00;;;;;;5051624;28;19911;-67
2024/03/29 14:25:32;;;;;;;;;;;16.90;1.00;;;;;;5051965;28;19909;-70
2024/03/29 14:27:59;;;;;;;;;;;16.70;1.00;;;;;;5051971;28;19986;-69
2024/03/29 14:30:25;;;;;;;;;;;16.60;1.00;;;;;;5052547;28;19905;-68